createdAt,value
2023-03-18T00:01:51.153Z,68.92
2023-03-18T00:04:19.638Z,68.89
2023-03-18T00:06:48.220Z,68.71
2023-03-18T00:09:20.085Z,68.75
2023-03-18T00:11:49.377Z,68.81
2023-03-18T00:14:19.622Z,68.99
2023-03-18T00:16:51.461Z,68.96
2023-03-18T00:19:20.351Z,69.02
2023-03-18T00:21:49.351Z,68.97
2023-03-18T00:24:17.928Z,68.71
2023-03-18T00:26:47.434Z,68.73
2023-03-18T00:29:16.741Z,68.62
2023-03-18T00:31:46.443Z,68.76
2023-03-18T00:34:15.238Z,68.95
2023-03-18T00:36:45.972Z,69.14
2023-03-18T00:39:15.172Z,69.26
2023-03-18T00:41:43.764Z,69.23
2023-03-18T00:44:15.214Z,68.99
2023-03-18T00:46:43.949Z,68.85
2023-03-18T00:49:12.275Z,68.90
2023-03-18T00:51:44.858Z,68.83
2023-03-18T00:54:14.463Z,68.90
2023-03-18T00:56:43.883Z,68.97
2023-03-18T00:59:12.251Z,68.84
2023-03-18T01:01:42.282Z,68.98
2023-03-18T01:04:11.787Z,69.03
2023-03-18T01:06:45.682Z,69.32
2023-03-18T01:09:14.680Z,69.29
2023-03-18T01:11:44.617Z,69.08
2023-03-18T01:14:13.492Z,69.24
2023-03-18T01:16:45.074Z,69.46
2023-03-18T01:19:14.957Z,69.41
2023-03-18T01:21:43.645Z,68.97
2023-03-18T01:24:13.471Z,69.11
2023-03-18T01:26:41.937Z,69.10
2023-03-18T01:29:11.141Z,68.90
2023-03-18T01:31:39.638Z,69.30
2023-03-18T01:34:12.509Z,69.27
2023-03-18T01:36:54.201Z,69.46
2023-03-18T01:39:24.222Z,69.33
2023-03-18T01:41:52.622Z,69.45
2023-03-18T01:44:27.941Z,69.42
2023-03-18T01:46:57.550Z,68.97
2023-03-18T01:49:36.717Z,68.94
2023-03-18T01:52:07.006Z,68.79
2023-03-18T01:54:43.987Z,68.73
2023-03-18T01:57:17.691Z,68.60
2023-03-18T01:59:46.636Z,68.03
2023-03-18T02:02:15.783Z,67.98
2023-03-18T02:04:56.668Z,68.33
2023-03-18T02:07:28.522Z,68.76
2023-03-18T02:10:02.845Z,69.24
2023-03-18T02:12:39.434Z,69.68
2023-03-18T02:15:11.645Z,69.61
2023-03-18T02:17:48.000Z,69.58
2023-03-18T02:20:20.537Z,69.31
2023-03-18T02:22:52.395Z,69.19
2023-03-18T02:25:22.311Z,68.80
2023-03-18T02:28:04.660Z,68.47
2023-03-18T02:30:46.694Z,68.77
2023-03-18T02:33:17.043Z,68.78
2023-03-18T02:35:45.942Z,68.54
2023-03-18T02:38:15.033Z,68.38
2023-03-18T02:40:43.412Z,68.49
2023-03-18T02:43:22.974Z,68.51
2023-03-18T02:46:31.524Z,68.47
2023-03-18T02:49:01.116Z,68.29
2023-03-18T02:51:30.403Z,68.28
2023-03-18T02:54:13.399Z,68.45
2023-03-18T02:56:43.049Z,68.77
2023-03-18T02:59:14.593Z,68.82
2023-03-18T03:01:44.081Z,68.64
2023-03-18T03:04:12.876Z,68.66
2023-03-18T03:06:43.098Z,68.75
2023-03-18T03:09:14.145Z,68.50
2023-03-18T03:11:43.277Z,68.47
2023-03-18T03:14:16.023Z,68.55
2023-03-18T03:16:45.218Z,68.39
2023-03-18T03:19:18.106Z,68.27
2023-03-18T03:21:48.748Z,68.27
2023-03-18T03:24:17.408Z,68.48
2023-03-18T03:26:46.629Z,68.43
2023-03-18T03:29:15.622Z,68.20
2023-03-18T03:31:44.001Z,68.06
2023-03-18T03:34:12.690Z,68.24
2023-03-18T03:36:41.995Z,68.20
2023-03-18T03:39:10.992Z,68.23
2023-03-18T03:41:39.882Z,68.04
2023-03-18T03:44:08.670Z,68.03
2023-03-18T03:46:39.682Z,68.14
2023-03-18T03:49:08.404Z,68.24
2023-03-18T03:51:37.663Z,68.01
2023-03-18T03:54:06.903Z,68.20
2023-03-18T03:56:37.124Z,68.16
2023-03-18T03:59:05.615Z,67.81
2023-03-18T04:01:53.855Z,67.62
2023-03-18T04:04:24.501Z,67.66
2023-03-18T04:06:53.479Z,67.37
2023-03-18T04:09:25.034Z,67.68
2023-03-18T04:11:53.725Z,67.49
2023-03-18T04:14:22.108Z,67.52
2023-03-18T04:16:51.111Z,67.34
2023-03-18T04:19:20.398Z,67.24
2023-03-18T04:21:50.007Z,67.23
2023-03-18T04:24:19.719Z,67.28
2023-03-18T04:26:48.509Z,67.24
2023-03-18T04:29:16.993Z,66.99
2023-03-18T04:31:46.001Z,66.87
2023-03-18T04:34:14.572Z,66.87
2023-03-18T04:36:43.779Z,66.50
2023-03-18T04:39:12.458Z,66.38
2023-03-18T04:41:48.934Z,66.40
2023-03-18T04:44:19.661Z,66.45
2023-03-18T04:46:53.779Z,66.51
2023-03-18T04:49:22.573Z,66.59
2023-03-18T04:51:51.667Z,66.36
2023-03-18T04:54:25.694Z,66.02
2023-03-18T04:56:55.582Z,66.21
2023-03-18T04:59:28.603Z,66.70
2023-03-18T05:01:57.784Z,66.53
2023-03-18T05:04:26.671Z,66.27
2023-03-18T05:06:56.592Z,66.17
2023-03-18T05:09:30.088Z,66.10
2023-03-18T05:12:01.438Z,66.06
2023-03-18T05:14:35.377Z,65.88
2023-03-18T05:17:04.655Z,65.72
2023-03-18T05:19:38.663Z,65.40
2023-03-18T05:22:16.668Z,65.67
2023-03-18T05:24:48.843Z,65.81
2023-03-18T05:27:19.186Z,65.86
2023-03-18T05:29:56.352Z,65.93
2023-03-18T05:32:35.837Z,66.06
2023-03-18T05:35:06.241Z,65.92
2023-03-18T05:37:40.029Z,66.17
2023-03-18T05:40:11.992Z,66.48
2023-03-18T05:42:57.114Z,66.77
2023-03-18T05:45:34.607Z,66.59
2023-03-18T05:48:03.751Z,66.75
2023-03-18T05:50:42.092Z,66.62
2023-03-18T05:53:12.389Z,66.53
2023-03-18T05:55:42.755Z,66.22
2023-03-18T05:58:12.125Z,66.23
2023-03-18T06:00:41.845Z,65.70
2023-03-18T06:03:11.991Z,65.66
2023-03-18T06:05:41.056Z,65.69
2023-03-18T06:08:09.945Z,65.80
2023-03-18T06:10:40.577Z,65.54
2023-03-18T06:13:11.314Z,65.53
2023-03-18T06:15:39.805Z,65.59
2023-03-18T06:18:09.715Z,65.57
2023-03-18T06:20:39.323Z,65.35
2023-03-18T06:23:11.185Z,65.07
2023-03-18T06:25:41.619Z,65.11
2023-03-18T06:28:10.301Z,65.56
2023-03-18T06:30:39.346Z,66.03
2023-03-18T06:33:08.990Z,66.08
2023-03-18T06:35:39.977Z,66.37
2023-03-18T06:38:10.994Z,66.04
2023-03-18T06:40:40.702Z,65.69
2023-03-18T06:43:09.492Z,65.79
2023-03-18T06:45:39.508Z,65.70
2023-03-18T06:48:10.760Z,65.37
2023-03-18T06:50:44.363Z,65.09
2023-03-18T06:53:19.097Z,65.27
2023-03-18T06:55:48.797Z,65.27
2023-03-18T06:58:18.822Z,64.93
2023-03-18T07:00:53.393Z,64.69
2023-03-18T07:03:26.432Z,64.56
2023-03-18T07:05:58.303Z,64.48
2023-03-18T07:08:27.598Z,64.54
2023-03-18T07:10:57.670Z,64.59
2023-03-18T07:13:27.221Z,64.66
2023-03-18T07:16:00.707Z,64.33
2023-03-18T07:18:29.725Z,64.01
2023-03-18T07:21:04.785Z,63.79
2023-03-18T07:23:34.584Z,63.75
2023-03-18T07:26:02.951Z,63.86
2023-03-18T07:28:33.275Z,64.01
2023-03-18T07:31:02.047Z,64.03
2023-03-18T07:33:34.955Z,63.93
2023-03-18T07:36:03.666Z,63.53
2023-03-18T07:38:32.229Z,63.56
2023-03-18T07:41:01.842Z,63.63
2023-03-18T07:43:31.346Z,63.23
2023-03-18T07:46:06.354Z,62.72
2023-03-18T07:48:35.479Z,62.75
2023-03-18T07:51:04.083Z,62.17
2023-03-18T07:53:34.075Z,61.84
2023-03-18T07:56:03.990Z,61.91
2023-03-18T07:58:38.947Z,61.82
2023-03-18T08:01:08.034Z,62.15
2023-03-18T08:03:37.381Z,62.28
2023-03-18T08:06:06.395Z,62.60
2023-03-18T08:08:35.006Z,62.59
2023-03-18T08:11:06.972Z,62.45
2023-03-18T08:13:39.054Z,62.58
2023-03-18T08:16:08.321Z,62.21
2023-03-18T08:18:38.058Z,61.99
2023-03-18T08:21:08.173Z,61.59
2023-03-18T08:23:37.205Z,61.47
2023-03-18T08:26:08.108Z,61.49
2023-03-18T08:28:36.569Z,61.74
2023-03-18T08:31:10.670Z,60.85
2023-03-18T08:33:39.496Z,60.89
2023-03-18T08:36:08.853Z,60.91
2023-03-18T08:38:39.448Z,60.88
2023-03-18T08:41:07.910Z,60.76
2023-03-18T08:43:39.114Z,60.68
2023-03-18T08:46:09.120Z,60.63
2023-03-18T08:48:37.685Z,60.54
2023-03-18T08:51:10.874Z,60.21
2023-03-18T08:53:40.071Z,59.97
2023-03-18T08:56:15.105Z,60.03
2023-03-18T08:58:46.338Z,60.03
2023-03-18T09:01:15.336Z,59.54
2023-03-18T09:03:44.916Z,59.08
2023-03-18T09:06:13.634Z,58.26
2023-03-18T09:08:42.845Z,58.12
2023-03-18T09:11:13.875Z,57.66
2023-03-18T09:13:42.366Z,57.87
2023-03-18T09:16:14.839Z,57.94
2023-03-18T09:18:45.272Z,57.91
2023-03-18T09:21:14.576Z,58.02
2023-03-18T09:23:44.780Z,57.81
2023-03-18T09:26:13.168Z,57.41
2023-03-18T09:28:43.692Z,56.27
2023-03-18T09:31:14.005Z,55.53
2023-03-18T09:33:43.539Z,54.77
2023-03-18T09:36:12.886Z,54.50
2023-03-18T09:38:42.837Z,54.09
2023-03-18T09:41:45.011Z,53.05
2023-03-18T09:44:34.006Z,53.14
2023-03-18T09:47:08.763Z,53.00
2023-03-18T09:50:10.870Z,53.04
2023-03-18T09:53:05.578Z,53.01
2023-03-18T09:55:41.420Z,53.55
2023-03-18T09:58:40.623Z,54.33
2023-03-18T10:01:09.986Z,54.72
2023-03-18T10:03:47.110Z,54.81
2023-03-18T10:06:32.901Z,55.26
2023-03-18T10:09:01.583Z,55.08
2023-03-18T10:11:34.468Z,55.42
2023-03-18T10:14:15.344Z,55.71
2023-03-18T10:16:59.599Z,55.71
2023-03-18T10:19:29.116Z,55.76
2023-03-18T10:22:16.320Z,55.72
2023-03-18T10:25:00.870Z,56.13
2023-03-18T10:27:46.153Z,55.89
2023-03-18T10:30:36.550Z,56.59
2023-03-18T10:33:19.097Z,57.14
2023-03-18T10:36:29.731Z,57.46
2023-03-18T10:38:58.632Z,57.22
2023-03-18T10:41:32.846Z,57.31
2023-03-18T10:44:11.355Z,56.54
2023-03-18T10:46:39.831Z,56.54
2023-03-18T10:49:21.433Z,56.51
2023-03-18T10:51:54.002Z,56.61
2023-03-18T10:54:39.790Z,56.88
2023-03-18T10:57:14.932Z,57.10
2023-03-18T10:59:45.673Z,56.87
2023-03-18T11:02:30.189Z,57.07
2023-03-18T11:05:11.914Z,57.32
2023-03-18T11:08:09.275Z,57.41
2023-03-18T11:10:40.726Z,57.38
2023-03-18T11:13:17.895Z,57.53
2023-03-18T11:15:52.194Z,57.25
2023-03-18T11:18:25.215Z,56.26
2023-03-18T11:21:01.148Z,56.29
2023-03-18T11:23:53.618Z,56.56
2023-03-18T11:26:22.097Z,55.92
2023-03-18T11:28:56.537Z,55.60
2023-03-18T11:31:25.174Z,55.44
2023-03-18T11:33:59.424Z,55.53
2023-03-18T11:36:28.414Z,56.05
2023-03-18T11:38:59.792Z,55.39
2023-03-18T11:41:28.787Z,55.59
2023-03-18T11:44:00.323Z,55.64
2023-03-18T11:46:36.581Z,56.02
2023-03-18T11:49:04.949Z,56.36
2023-03-18T11:55:01.643Z,54.37
2023-03-18T11:57:33.918Z,53.39
2023-03-18T12:00:17.931Z,52.65
2023-03-18T12:03:13.856Z,51.32
2023-03-18T12:05:54.338Z,50.43
2023-03-18T12:08:50.959Z,50.20
2023-03-18T12:11:23.744Z,50.68
2023-03-18T12:14:22.227Z,50.55
2023-03-18T12:17:02.179Z,49.04
2023-03-18T12:19:51.041Z,48.04
2023-03-18T12:22:22.489Z,48.06
2023-03-18T12:24:56.812Z,47.99
2023-03-18T12:28:01.650Z,46.17
2023-03-18T12:31:16.332Z,45.13
2023-03-18T12:33:58.202Z,44.25
2023-03-18T12:36:48.803Z,43.48
2023-03-18T12:39:35.932Z,42.84
2023-03-18T12:42:07.580Z,43.67
2023-03-18T12:44:52.548Z,43.50
2023-03-18T12:47:37.175Z,42.11
2023-03-18T12:50:34.567Z,41.00
2023-03-18T12:53:04.482Z,39.80
2023-03-18T12:55:57.232Z,39.83
2023-03-18T12:58:31.608Z,40.74
2023-03-18T13:01:07.314Z,41.47
2023-03-18T13:03:38.966Z,41.23
2023-03-18T13:06:22.594Z,40.82
2023-03-18T13:09:08.587Z,40.02
2023-03-18T13:11:47.213Z,40.25
2023-03-18T13:14:27.458Z,39.94
2023-03-18T13:16:56.987Z,39.33
2023-03-18T13:19:25.954Z,38.65
2023-03-18T13:22:12.564Z,38.65
2023-03-18T13:24:46.723Z,38.73
2023-03-18T13:27:22.253Z,38.05
2023-03-18T13:30:02.293Z,37.97
2023-03-18T13:33:04.181Z,38.75
2023-03-18T13:35:37.787Z,38.64
2023-03-18T13:38:34.893Z,38.04
2023-03-18T13:41:26.927Z,38.08
2023-03-18T13:43:56.231Z,37.89
2023-03-18T13:46:27.492Z,37.32
2023-03-18T13:49:00.358Z,36.97
2023-03-18T13:51:29.874Z,36.20
2023-03-18T13:54:01.035Z,36.73
2023-03-18T13:56:45.065Z,37.25
2023-03-18T13:59:32.385Z,37.55
2023-03-18T14:02:29.742Z,37.83
2023-03-18T14:04:59.861Z,36.79
2023-03-18T14:07:29.785Z,36.23
2023-03-18T14:10:17.127Z,35.94
2023-03-18T14:12:48.594Z,35.44
2023-03-18T14:15:23.812Z,35.35
2023-03-18T14:17:59.347Z,34.69
2023-03-18T14:20:52.823Z,34.65
2023-03-18T14:23:39.224Z,34.84
2023-03-18T14:26:16.915Z,34.27
2023-03-18T14:29:09.666Z,34.36
2023-03-18T14:31:39.053Z,34.43
2023-03-18T14:34:13.490Z,34.47
2023-03-18T14:36:58.669Z,33.70
2023-03-18T14:39:38.857Z,32.84
2023-03-18T14:42:29.627Z,32.05
2023-03-18T14:45:14.295Z,31.81
2023-03-18T14:47:56.313Z,31.35
2023-03-18T14:50:35.967Z,30.90
2023-03-18T14:53:17.780Z,30.96
2023-03-18T14:55:46.205Z,30.33
2023-03-18T14:58:16.918Z,29.86
2023-03-18T15:00:46.008Z,29.40
2023-03-18T15:03:35.820Z,29.38
2023-03-18T15:06:17.946Z,29.46
2023-03-18T15:08:53.690Z,28.83
2023-03-18T15:11:22.158Z,28.40
2023-03-18T15:13:50.594Z,28.21
2023-03-18T15:16:20.205Z,27.99
2023-03-18T15:18:53.142Z,27.67
2023-03-18T15:21:30.771Z,27.61
2023-03-18T15:24:01.377Z,27.43
2023-03-18T15:26:32.002Z,27.33
2023-03-18T15:29:02.536Z,27.34
2023-03-18T15:31:33.888Z,27.81
2023-03-18T15:34:20.287Z,28.19
2023-03-18T15:36:57.618Z,28.38
2023-03-18T15:39:39.070Z,28.53
2023-03-18T15:42:15.191Z,28.98
2023-03-18T15:44:46.377Z,29.53
2023-03-18T15:47:22.333Z,30.00
2023-03-18T15:50:00.773Z,31.00
2023-03-18T15:52:33.765Z,32.24
2023-03-18T15:55:02.678Z,33.40
2023-03-18T15:57:38.393Z,34.66
2023-03-18T16:00:10.767Z,35.81
2023-03-18T16:02:42.162Z,36.83
2023-03-18T16:05:26.778Z,38.30
2023-03-18T16:07:55.469Z,39.61
2023-03-18T16:10:25.938Z,40.76
2023-03-18T16:12:56.827Z,41.92
2023-03-18T16:15:26.064Z,43.19
2023-03-18T16:17:55.452Z,44.02
2023-03-18T16:20:26.284Z,44.99
2023-03-18T16:22:55.577Z,45.84
2023-03-18T16:25:24.581Z,46.68
2023-03-18T16:27:56.923Z,47.34
2023-03-18T16:30:30.064Z,48.16
2023-03-18T16:32:58.967Z,48.83
2023-03-18T16:35:31.049Z,49.46
2023-03-18T16:37:59.986Z,49.96
2023-03-18T16:40:33.085Z,50.41
2023-03-18T16:43:02.377Z,50.84
2023-03-18T16:45:32.454Z,51.30
2023-03-18T16:48:07.099Z,51.82
2023-03-18T16:50:37.825Z,52.27
2023-03-18T16:53:18.634Z,52.55
2023-03-18T16:55:52.053Z,52.93
2023-03-18T16:58:25.736Z,53.23
2023-03-18T17:00:54.544Z,53.62
2023-03-18T17:03:23.623Z,53.76
2023-03-18T17:05:53.161Z,54.02
2023-03-18T17:08:23.771Z,54.33
2023-03-18T17:10:55.634Z,54.51
2023-03-18T17:13:26.202Z,54.57
2023-03-18T17:15:54.770Z,54.76
2023-03-18T17:18:24.153Z,54.94
2023-03-18T17:20:55.804Z,55.27
2023-03-18T17:23:27.056Z,55.48
2023-03-18T17:25:59.327Z,55.63
2023-03-18T17:28:36.074Z,55.74
2023-03-18T17:31:05.153Z,55.88
2023-03-18T17:33:35.733Z,56.07
2023-03-18T17:36:04.923Z,56.15
2023-03-18T17:38:35.296Z,56.40
2023-03-18T17:41:05.804Z,56.50
2023-03-18T17:43:36.369Z,56.77
2023-03-18T17:46:06.538Z,56.99
2023-03-18T17:48:37.528Z,57.24
2023-03-18T17:51:17.718Z,57.79
2023-03-18T17:53:55.642Z,57.65
2023-03-18T17:56:24.839Z,57.85
2023-03-18T17:58:56.906Z,57.90
2023-03-18T18:01:27.472Z,58.13
2023-03-18T18:03:59.923Z,58.31
2023-03-18T18:06:29.593Z,58.20
2023-03-18T18:09:02.384Z,58.45
2023-03-18T18:11:35.617Z,58.57
2023-03-18T18:14:15.051Z,58.49
2023-03-18T18:16:43.941Z,58.74
2023-03-18T18:19:15.212Z,58.73
2023-03-18T18:21:44.386Z,58.71
2023-03-18T18:24:33.751Z,58.98
2023-03-18T18:27:04.713Z,59.48
2023-03-18T18:29:35.029Z,59.72
2023-03-18T18:32:06.977Z,60.13
2023-03-18T18:34:36.766Z,60.21
2023-03-18T18:37:05.176Z,60.45
2023-03-18T18:39:33.550Z,60.62
2023-03-18T18:42:10.429Z,60.76
2023-03-18T18:44:38.912Z,60.85
2023-03-18T18:47:19.183Z,60.60
2023-03-18T18:49:52.470Z,60.87
2023-03-18T18:52:21.673Z,61.18
2023-03-18T18:54:50.073Z,61.24
2023-03-18T18:57:25.157Z,61.23
2023-03-18T18:59:54.283Z,61.38
2023-03-18T19:02:34.025Z,61.31
2023-03-18T19:05:04.978Z,61.30
2023-03-18T19:07:34.058Z,61.38
2023-03-18T19:10:02.435Z,61.51
2023-03-18T19:12:31.440Z,61.40
2023-03-18T19:15:07.127Z,61.45
2023-03-18T19:17:36.484Z,61.29
2023-03-18T19:20:05.651Z,61.83
2023-03-18T19:22:36.929Z,61.86
2023-03-18T19:25:05.868Z,61.78
2023-03-18T19:27:34.307Z,61.93
2023-03-18T19:30:07.843Z,61.92
2023-03-18T19:32:36.842Z,61.93
2023-03-18T19:35:10.403Z,62.31
2023-03-18T19:37:39.498Z,62.73
2023-03-18T19:40:19.756Z,63.00
2023-03-18T19:42:48.447Z,63.26
2023-03-18T19:45:18.061Z,63.26
2023-03-18T19:47:48.777Z,63.90
2023-03-18T19:50:18.519Z,63.99
2023-03-18T19:52:49.119Z,63.95
2023-03-18T19:55:18.025Z,64.11
2023-03-18T19:57:47.208Z,64.10
2023-03-18T20:00:22.128Z,64.44
2023-03-18T20:02:51.299Z,64.17
2023-03-18T20:05:23.717Z,64.20
2023-03-18T20:07:52.712Z,64.17
2023-03-18T20:10:21.705Z,64.17
2023-03-18T20:12:51.517Z,64.23
2023-03-18T20:15:22.149Z,64.14
2023-03-18T20:17:51.459Z,64.41
2023-03-18T20:20:25.573Z,64.67
2023-03-18T20:22:57.636Z,64.63
2023-03-18T20:25:29.077Z,64.69
2023-03-18T20:27:58.484Z,64.59
2023-03-18T20:30:29.616Z,65.11
2023-03-18T20:33:00.213Z,65.74
2023-03-18T20:35:32.452Z,65.83
2023-03-18T20:38:05.213Z,66.05
2023-03-18T20:40:35.843Z,66.08
2023-03-18T20:43:04.735Z,66.07
2023-03-18T20:45:34.403Z,65.86
2023-03-18T20:48:03.026Z,65.61
2023-03-18T20:50:32.123Z,65.48
2023-03-18T20:53:01.132Z,65.26
2023-03-18T20:55:31.921Z,64.78
2023-03-18T20:58:07.304Z,64.43
2023-03-18T21:00:36.908Z,64.48
2023-03-18T21:03:06.821Z,64.33
2023-03-18T21:05:35.408Z,64.38
2023-03-18T21:08:04.724Z,64.59
2023-03-18T21:10:35.237Z,64.29
2023-03-18T21:13:26.158Z,64.24
2023-03-18T21:15:55.134Z,63.98
2023-03-18T21:18:29.047Z,64.13
2023-03-18T21:20:58.343Z,64.26
2023-03-18T21:23:28.467Z,63.88
2023-03-18T21:25:57.458Z,63.97
2023-03-18T21:28:28.185Z,63.77
2023-03-18T21:30:59.455Z,63.75
2023-03-18T21:33:30.168Z,63.75
2023-03-18T21:35:58.922Z,63.91
2023-03-18T21:38:31.766Z,64.06
2023-03-18T21:41:00.323Z,63.93
2023-03-18T21:43:39.879Z,63.98
2023-03-18T21:46:12.691Z,63.88
2023-03-18T21:48:41.026Z,64.18
2023-03-18T21:51:35.206Z,64.20
2023-03-18T21:54:06.609Z,64.50
2023-03-18T21:56:35.039Z,64.37
2023-03-18T21:59:03.649Z,64.34
2023-03-18T22:01:32.616Z,64.24
2023-03-18T22:04:01.475Z,64.34
2023-03-18T22:06:30.130Z,64.36
2023-03-18T22:08:58.574Z,64.42
2023-03-18T22:11:27.990Z,64.69
2023-03-18T22:13:57.200Z,64.91
2023-03-18T22:16:26.354Z,65.03
2023-03-18T22:18:54.961Z,64.86
2023-03-18T22:21:25.211Z,64.98
2023-03-18T22:23:54.384Z,64.78
2023-03-18T22:26:22.870Z,65.13
2023-03-18T22:28:55.133Z,65.34
2023-03-18T22:31:25.470Z,65.84
2023-03-18T22:33:54.042Z,66.28
2023-03-18T22:36:22.519Z,67.02
2023-03-18T22:38:51.217Z,67.60
2023-03-18T22:41:25.010Z,67.84
2023-03-18T22:43:53.901Z,68.21
2023-03-18T22:46:22.238Z,68.29
2023-03-18T22:48:52.198Z,68.35
2023-03-18T22:51:26.758Z,68.12
2023-03-18T22:53:55.608Z,68.32
2023-03-18T22:56:24.396Z,68.42
2023-03-18T22:58:52.788Z,68.40
2023-03-18T23:01:23.421Z,68.42
2023-03-18T23:03:51.994Z,68.53
2023-03-18T23:06:24.018Z,68.37
2023-03-18T23:08:54.281Z,68.50
2023-03-18T23:11:24.219Z,68.41
2023-03-18T23:13:54.212Z,68.28
2023-03-18T23:16:23.439Z,68.22
2023-03-18T23:18:52.103Z,68.56
2023-03-18T23:21:22.237Z,68.79
2023-03-18T23:23:52.663Z,68.68
2023-03-18T23:26:22.462Z,68.58
2023-03-18T23:28:51.176Z,68.45
2023-03-18T23:31:19.669Z,68.44
2023-03-18T23:33:48.129Z,68.03
2023-03-18T23:36:17.442Z,68.11
2023-03-18T23:38:46.201Z,68.46
2023-03-18T23:41:14.575Z,68.23
2023-03-18T23:43:51.153Z,68.55
2023-03-18T23:46:19.877Z,68.49
2023-03-18T23:48:48.514Z,68.37
2023-03-18T23:51:17.610Z,68.14
2023-03-18T23:53:46.091Z,68.13
2023-03-18T23:56:17.548Z,68.13
2023-03-18T23:58:47.050Z,68.23
